sensor_id;sensor_type;location;lat;lon;timestamp;P1;durP1;ratioP1;P2;durP2;ratioP2
78844;SDS011;68195;50.854;2.860;2023-07-28T00:00:18;2.97;;;1.75;;
78844;SDS011;68195;50.854;2.860;2023-07-28T00:02:44;4.63;;;1.90;;
78844;SDS011;68195;50.854;2.860;2023-07-28T00:05:11;3.83;;;2.53;;
78844;SDS011;68195;50.854;2.860;2023-07-28T00:07:37;2.83;;;1.50;;
78844;SDS011;68195;50.854;2.860;2023-07-28T00:10:04;3.88;;;1.70;;
78844;SDS011;68195;50.854;2.860;2023-07-28T00:12:33;3.15;;;1.80;;
78844;SDS011;68195;50.854;2.860;2023-07-28T00:15:01;4.45;;;1.98;;
78844;SDS011;68195;50.854;2.860;2023-07-28T00:17:27;2.38;;;1.50;;
78844;SDS011;68195;50.854;2.860;2023-07-28T00:19:52;4.00;;;2.35;;
78844;SDS011;68195;50.854;2.860;2023-07-28T00:22:18;5.13;;;1.55;;
78844;SDS011;68195;50.854;2.860;2023-07-28T00:24:43;4.40;;;1.98;;
78844;SDS011;68195;50.854;2.860;2023-07-28T00:27:12;2.92;;;1.80;;
78844;SDS011;68195;50.854;2.860;2023-07-28T00:29:39;2.47;;;1.90;;
78844;SDS011;68195;50.854;2.860;2023-07-28T00:32:08;3.08;;;1.33;;
78844;SDS011;68195;50.854;2.860;2023-07-28T00:34:34;3.75;;;1.77;;
78844;SDS011;68195;50.854;2.860;2023-07-28T00:36:59;6.20;;;1.90;;
78844;SDS011;68195;50.854;2.860;2023-07-28T00:39:27;4.78;;;1.70;;
78844;SDS011;68195;50.854;2.860;2023-07-28T00:41:52;3.03;;;1.40;;
78844;SDS011;68195;50.854;2.860;2023-07-28T00:44:17;3.40;;;1.45;;
78844;SDS011;68195;50.854;2.860;2023-07-28T00:46:45;3.05;;;1.33;;
78844;SDS011;68195;50.854;2.860;2023-07-28T00:49:10;1.98;;;1.40;;
78844;SDS011;68195;50.854;2.860;2023-07-28T00:51:38;1.73;;;1.17;;
78844;SDS011;68195;50.854;2.860;2023-07-28T00:54:04;2.17;;;1.50;;
78844;SDS011;68195;50.854;2.860;2023-07-28T00:56:32;2.28;;;1.05;;
78844;SDS011;68195;50.854;2.860;2023-07-28T00:59:00;4.25;;;1.20;;
78844;SDS011;68195;50.854;2.860;2023-07-28T01:01:28;2.22;;;1.27;;
78844;SDS011;68195;50.854;2.860;2023-07-28T01:03:56;4.43;;;1.10;;
78844;SDS011;68195;50.854;2.860;2023-07-28T01:09:01;2.42;;;1.23;;
78844;SDS011;68195;50.854;2.860;2023-07-28T01:11:34;2.47;;;1.20;;
78844;SDS011;68195;50.854;2.860;2023-07-28T01:14:00;1.92;;;1.27;;
78844;SDS011;68195;50.854;2.860;2023-07-28T01:16:30;2.47;;;1.23;;
78844;SDS011;68195;50.854;2.860;2023-07-28T01:18:55;2.60;;;1.13;;
78844;SDS011;68195;50.854;2.860;2023-07-28T01:21:25;1.80;;;1.15;;
78844;SDS011;68195;50.854;2.860;2023-07-28T01:26:30;1.20;;;1.10;;
78844;SDS011;68195;50.854;2.860;2023-07-28T01:28:57;1.13;;;0.88;;
78844;SDS011;68195;50.854;2.860;2023-07-28T01:31:27;1.52;;;0.90;;
78844;SDS011;68195;50.854;2.860;2023-07-28T01:33:52;1.27;;;0.80;;
78844;SDS011;68195;50.854;2.860;2023-07-28T01:36:18;2.08;;;0.88;;
78844;SDS011;68195;50.854;2.860;2023-07-28T01:38:46;1.05;;;0.90;;
78844;SDS011;68195;50.854;2.860;2023-07-28T01:41:11;1.73;;;1.10;;
78844;SDS011;68195;50.854;2.860;2023-07-28T01:43:37;2.70;;;1.08;;
78844;SDS011;68195;50.854;2.860;2023-07-28T01:46:02;3.25;;;1.15;;
78844;SDS011;68195;50.854;2.860;2023-07-28T01:48:28;1.90;;;1.00;;
78844;SDS011;68195;50.854;2.860;2023-07-28T01:50:56;1.42;;;1.08;;
78844;SDS011;68195;50.854;2.860;2023-07-28T01:53:21;1.25;;;0.80;;
78844;SDS011;68195;50.854;2.860;2023-07-28T01:55:51;1.77;;;1.00;;
78844;SDS011;68195;50.854;2.860;2023-07-28T01:58:16;1.48;;;0.85;;
78844;SDS011;68195;50.854;2.860;2023-07-28T02:00:42;2.28;;;1.08;;
78844;SDS011;68195;50.854;2.860;2023-07-28T02:03:10;1.15;;;0.90;;
78844;SDS011;68195;50.854;2.860;2023-07-28T02:05:35;2.33;;;1.13;;
78844;SDS011;68195;50.854;2.860;2023-07-28T02:08:03;1.52;;;1.00;;
78844;SDS011;68195;50.854;2.860;2023-07-28T02:10:31;2.95;;;1.55;;
78844;SDS011;68195;50.854;2.860;2023-07-28T02:12:59;1.65;;;1.20;;
78844;SDS011;68195;50.854;2.860;2023-07-28T02:15:24;2.22;;;1.15;;
78844;SDS011;68195;50.854;2.860;2023-07-28T02:17:49;2.80;;;1.75;;
78844;SDS011;68195;50.854;2.860;2023-07-28T02:20:15;2.10;;;1.40;;
78844;SDS011;68195;50.854;2.860;2023-07-28T02:22:41;2.50;;;1.52;;
78844;SDS011;68195;50.854;2.860;2023-07-28T02:25:07;4.35;;;1.30;;
78844;SDS011;68195;50.854;2.860;2023-07-28T02:27:33;3.40;;;1.33;;
78844;SDS011;68195;50.854;2.860;2023-07-28T02:29:59;2.65;;;1.67;;
78844;SDS011;68195;50.854;2.860;2023-07-28T02:32:27;2.20;;;1.55;;
78844;SDS011;68195;50.854;2.860;2023-07-28T02:34:53;4.35;;;1.40;;
78844;SDS011;68195;50.854;2.860;2023-07-28T02:37:21;2.00;;;1.40;;
78844;SDS011;68195;50.854;2.860;2023-07-28T02:39:47;3.45;;;1.48;;
78844;SDS011;68195;50.854;2.860;2023-07-28T02:42:12;2.97;;;1.52;;
78844;SDS011;68195;50.854;2.860;2023-07-28T02:44:38;4.63;;;1.70;;
78844;SDS011;68195;50.854;2.860;2023-07-28T02:47:06;2.25;;;1.27;;
78844;SDS011;68195;50.854;2.860;2023-07-28T02:49:31;2.55;;;1.60;;
78844;SDS011;68195;50.854;2.860;2023-07-28T02:51:57;3.20;;;1.55;;
78844;SDS011;68195;50.854;2.860;2023-07-28T02:54:22;3.67;;;1.58;;
78844;SDS011;68195;50.854;2.860;2023-07-28T02:56:52;2.00;;;1.20;;
78844;SDS011;68195;50.854;2.860;2023-07-28T02:59:18;2.78;;;1.40;;
78844;SDS011;68195;50.854;2.860;2023-07-28T03:01:46;2.88;;;1.60;;
78844;SDS011;68195;50.854;2.860;2023-07-28T03:04:17;2.55;;;1.40;;
78844;SDS011;68195;50.854;2.860;2023-07-28T03:06:44;1.63;;;1.13;;
78844;SDS011;68195;50.854;2.860;2023-07-28T03:09:09;2.72;;;1.58;;
78844;SDS011;68195;50.854;2.860;2023-07-28T03:11:34;4.35;;;1.45;;
78844;SDS011;68195;50.854;2.860;2023-07-28T03:14:00;1.95;;;1.30;;
78844;SDS011;68195;50.854;2.860;2023-07-28T03:16:25;3.63;;;1.40;;
78844;SDS011;68195;50.854;2.860;2023-07-28T03:18:53;2.08;;;1.38;;
78844;SDS011;68195;50.854;2.860;2023-07-28T03:21:18;2.83;;;1.40;;
78844;SDS011;68195;50.854;2.860;2023-07-28T03:23:46;4.30;;;1.48;;
78844;SDS011;68195;50.854;2.860;2023-07-28T03:26:14;4.32;;;1.25;;
78844;SDS011;68195;50.854;2.860;2023-07-28T03:28:39;3.75;;;1.48;;
78844;SDS011;68195;50.854;2.860;2023-07-28T03:31:09;2.45;;;1.08;;
78844;SDS011;68195;50.854;2.860;2023-07-28T03:33:37;4.88;;;1.40;;
78844;SDS011;68195;50.854;2.860;2023-07-28T03:36:02;5.60;;;1.58;;
78844;SDS011;68195;50.854;2.860;2023-07-28T03:38:30;2.38;;;1.38;;
78844;SDS011;68195;50.854;2.860;2023-07-28T03:40:55;6.43;;;1.70;;
78844;SDS011;68195;50.854;2.860;2023-07-28T03:43:25;2.50;;;1.20;;
78844;SDS011;68195;50.854;2.860;2023-07-28T03:45:56;3.10;;;1.58;;
78844;SDS011;68195;50.854;2.860;2023-07-28T03:48:21;2.38;;;1.45;;
78844;SDS011;68195;50.854;2.860;2023-07-28T03:50:49;2.95;;;1.73;;
78844;SDS011;68195;50.854;2.860;2023-07-28T03:53:16;3.42;;;1.60;;
78844;SDS011;68195;50.854;2.860;2023-07-28T03:55:42;3.38;;;1.85;;
78844;SDS011;68195;50.854;2.860;2023-07-28T03:58:09;2.90;;;1.58;;
78844;SDS011;68195;50.854;2.860;2023-07-28T04:00:37;3.03;;;1.70;;
78844;SDS011;68195;50.854;2.860;2023-07-28T04:03:04;5.28;;;2.03;;
78844;SDS011;68195;50.854;2.860;2023-07-28T04:05:30;2.35;;;1.00;;
78844;SDS011;68195;50.854;2.860;2023-07-28T04:07:55;4.03;;;2.13;;
78844;SDS011;68195;50.854;2.860;2023-07-28T04:10:23;3.20;;;1.50;;
78844;SDS011;68195;50.854;2.860;2023-07-28T04:12:49;4.18;;;1.17;;
78844;SDS011;68195;50.854;2.860;2023-07-28T04:15:14;3.30;;;1.50;;
78844;SDS011;68195;50.854;2.860;2023-07-28T04:17:39;2.33;;;1.30;;
78844;SDS011;68195;50.854;2.860;2023-07-28T04:20:05;3.00;;;1.42;;
78844;SDS011;68195;50.854;2.860;2023-07-28T04:22:33;2.25;;;1.30;;
78844;SDS011;68195;50.854;2.860;2023-07-28T04:24:59;4.70;;;1.67;;
78844;SDS011;68195;50.854;2.860;2023-07-28T04:27:24;2.42;;;1.52;;
78844;SDS011;68195;50.854;2.860;2023-07-28T04:29:49;4.50;;;1.58;;
78844;SDS011;68195;50.854;2.860;2023-07-28T04:32:15;3.22;;;1.77;;
78844;SDS011;68195;50.854;2.860;2023-07-28T04:34:40;2.60;;;1.50;;
78844;SDS011;68195;50.854;2.860;2023-07-28T04:37:08;3.40;;;1.55;;
78844;SDS011;68195;50.854;2.860;2023-07-28T04:39:33;2.70;;;1.55;;
78844;SDS011;68195;50.854;2.860;2023-07-28T04:41:59;4.60;;;1.83;;
78844;SDS011;68195;50.854;2.860;2023-07-28T04:44:24;3.70;;;1.95;;
78844;SDS011;68195;50.854;2.860;2023-07-28T04:46:49;5.30;;;2.45;;
78844;SDS011;68195;50.854;2.860;2023-07-28T04:49:19;8.13;;;2.70;;
78844;SDS011;68195;50.854;2.860;2023-07-28T04:51:48;6.30;;;3.00;;
78844;SDS011;68195;50.854;2.860;2023-07-28T04:54:13;7.03;;;3.50;;
78844;SDS011;68195;50.854;2.860;2023-07-28T04:56:41;8.35;;;3.97;;
78844;SDS011;68195;50.854;2.860;2023-07-28T04:59:10;7.93;;;3.97;;
78844;SDS011;68195;50.854;2.860;2023-07-28T05:01:35;11.23;;;4.10;;
78844;SDS011;68195;50.854;2.860;2023-07-28T05:04:03;10.00;;;4.70;;
78844;SDS011;68195;50.854;2.860;2023-07-28T05:06:29;7.90;;;4.30;;
78844;SDS011;68195;50.854;2.860;2023-07-28T05:08:54;12.38;;;5.97;;
78844;SDS011;68195;50.854;2.860;2023-07-28T05:11:19;9.95;;;4.55;;
78844;SDS011;68195;50.854;2.860;2023-07-28T05:13:47;8.45;;;4.18;;
78844;SDS011;68195;50.854;2.860;2023-07-28T05:16:12;9.68;;;4.63;;
78844;SDS011;68195;50.854;2.860;2023-07-28T05:18:38;8.90;;;4.07;;
78844;SDS011;68195;50.854;2.860;2023-07-28T05:21:03;10.38;;;4.32;;
78844;SDS011;68195;50.854;2.860;2023-07-28T05:23:33;10.60;;;4.82;;
78844;SDS011;68195;50.854;2.860;2023-07-28T05:25:58;8.88;;;4.20;;
78844;SDS011;68195;50.854;2.860;2023-07-28T05:28:24;10.57;;;4.35;;
78844;SDS011;68195;50.854;2.860;2023-07-28T05:30:54;9.60;;;3.67;;
78844;SDS011;68195;50.854;2.860;2023-07-28T05:33:19;10.13;;;4.10;;
78844;SDS011;68195;50.854;2.860;2023-07-28T05:35:47;7.45;;;4.47;;
78844;SDS011;68195;50.854;2.860;2023-07-28T05:38:12;8.23;;;4.13;;
78844;SDS011;68195;50.854;2.860;2023-07-28T05:40:37;11.02;;;4.63;;
78844;SDS011;68195;50.854;2.860;2023-07-28T05:43:03;10.85;;;5.35;;
78844;SDS011;68195;50.854;2.860;2023-07-28T05:45:31;8.52;;;4.45;;
78844;SDS011;68195;50.854;2.860;2023-07-28T05:47:56;10.27;;;4.78;;
78844;SDS011;68195;50.854;2.860;2023-07-28T05:50:21;7.90;;;4.20;;
78844;SDS011;68195;50.854;2.860;2023-07-28T05:52:47;8.02;;;4.30;;
78844;SDS011;68195;50.854;2.860;2023-07-28T05:55:12;9.18;;;4.68;;
78844;SDS011;68195;50.854;2.860;2023-07-28T05:57:37;9.68;;;5.95;;
78844;SDS011;68195;50.854;2.860;2023-07-28T06:00:03;11.38;;;4.97;;
78844;SDS011;68195;50.854;2.860;2023-07-28T06:02:29;8.82;;;4.57;;
78844;SDS011;68195;50.854;2.860;2023-07-28T06:04:56;9.32;;;4.88;;
78844;SDS011;68195;50.854;2.860;2023-07-28T06:07:22;11.48;;;5.03;;
78844;SDS011;68195;50.854;2.860;2023-07-28T06:09:54;13.48;;;5.90;;
78844;SDS011;68195;50.854;2.860;2023-07-28T06:12:19;12.80;;;5.18;;
78844;SDS011;68195;50.854;2.860;2023-07-28T06:14:45;12.13;;;5.60;;
78844;SDS011;68195;50.854;2.860;2023-07-28T06:17:12;8.73;;;5.45;;
78844;SDS011;68195;50.854;2.860;2023-07-28T06:19:38;9.77;;;5.47;;
78844;SDS011;68195;50.854;2.860;2023-07-28T06:22:03;10.98;;;6.50;;
78844;SDS011;68195;50.854;2.860;2023-07-28T06:24:34;9.52;;;6.05;;
78844;SDS011;68195;50.854;2.860;2023-07-28T06:26:59;11.60;;;6.30;;
78844;SDS011;68195;50.854;2.860;2023-07-28T06:29:25;9.45;;;5.63;;
78844;SDS011;68195;50.854;2.860;2023-07-28T06:31:50;6.18;;;4.13;;
78844;SDS011;68195;50.854;2.860;2023-07-28T06:34:15;6.93;;;4.35;;
78844;SDS011;68195;50.854;2.860;2023-07-28T06:36:41;7.78;;;4.90;;
78844;SDS011;68195;50.854;2.860;2023-07-28T06:39:09;7.45;;;4.50;;
78844;SDS011;68195;50.854;2.860;2023-07-28T06:41:34;8.23;;;4.75;;
78844;SDS011;68195;50.854;2.860;2023-07-28T06:44:02;8.50;;;4.72;;
78844;SDS011;68195;50.854;2.860;2023-07-28T06:46:33;7.80;;;4.35;;
78844;SDS011;68195;50.854;2.860;2023-07-28T06:48:59;9.07;;;4.70;;
78844;SDS011;68195;50.854;2.860;2023-07-28T06:51:24;7.93;;;4.43;;
78844;SDS011;68195;50.854;2.860;2023-07-28T06:53:50;6.88;;;4.18;;
78844;SDS011;68195;50.854;2.860;2023-07-28T06:56:16;4.88;;;3.53;;
78844;SDS011;68195;50.854;2.860;2023-07-28T06:58:42;5.60;;;3.85;;
78844;SDS011;68195;50.854;2.860;2023-07-28T07:01:07;6.35;;;3.50;;
78844;SDS011;68195;50.854;2.860;2023-07-28T07:03:36;5.80;;;3.08;;
78844;SDS011;68195;50.854;2.860;2023-07-28T07:06:02;4.88;;;3.38;;
78844;SDS011;68195;50.854;2.860;2023-07-28T07:08:32;6.55;;;2.90;;
78844;SDS011;68195;50.854;2.860;2023-07-28T07:10:57;4.38;;;3.03;;
78844;SDS011;68195;50.854;2.860;2023-07-28T07:13:23;3.38;;;2.35;;
78844;SDS011;68195;50.854;2.860;2023-07-28T07:15:48;6.78;;;3.25;;
78844;SDS011;68195;50.854;2.860;2023-07-28T07:18:14;5.90;;;2.72;;
78844;SDS011;68195;50.854;2.860;2023-07-28T07:20:41;4.15;;;2.35;;
78844;SDS011;68195;50.854;2.860;2023-07-28T07:23:07;4.15;;;2.67;;
78844;SDS011;68195;50.854;2.860;2023-07-28T07:25:32;5.68;;;3.10;;
78844;SDS011;68195;50.854;2.860;2023-07-28T07:27:58;5.55;;;2.90;;
78844;SDS011;68195;50.854;2.860;2023-07-28T07:30:26;6.28;;;2.85;;
78844;SDS011;68195;50.854;2.860;2023-07-28T07:32:56;5.45;;;2.75;;
78844;SDS011;68195;50.854;2.860;2023-07-28T07:35:24;3.45;;;2.33;;
78844;SDS011;68195;50.854;2.860;2023-07-28T07:37:50;4.53;;;2.35;;
78844;SDS011;68195;50.854;2.860;2023-07-28T07:40:17;5.10;;;2.33;;
78844;SDS011;68195;50.854;2.860;2023-07-28T07:42:46;3.47;;;2.22;;
78844;SDS011;68195;50.854;2.860;2023-07-28T07:45:13;5.90;;;2.30;;
78844;SDS011;68195;50.854;2.860;2023-07-28T07:47:41;5.72;;;2.05;;
78844;SDS011;68195;50.854;2.860;2023-07-28T07:50:08;4.78;;;2.67;;
78844;SDS011;68195;50.854;2.860;2023-07-28T07:52:37;3.38;;;2.10;;
78844;SDS011;68195;50.854;2.860;2023-07-28T07:55:03;3.42;;;2.22;;
78844;SDS011;68195;50.854;2.860;2023-07-28T07:57:34;2.97;;;2.17;;
78844;SDS011;68195;50.854;2.860;2023-07-28T08:00:00;5.47;;;2.42;;
78844;SDS011;68195;50.854;2.860;2023-07-28T08:02:25;4.03;;;2.05;;
78844;SDS011;68195;50.854;2.860;2023-07-28T08:04:51;4.43;;;2.55;;
78844;SDS011;68195;50.854;2.860;2023-07-28T08:07:18;3.10;;;1.90;;
78844;SDS011;68195;50.854;2.860;2023-07-28T08:09:44;3.88;;;2.15;;
78844;SDS011;68195;50.854;2.860;2023-07-28T08:12:12;3.15;;;2.05;;
78844;SDS011;68195;50.854;2.860;2023-07-28T08:14:43;2.00;;;1.40;;
78844;SDS011;68195;50.854;2.860;2023-07-28T08:17:10;2.35;;;1.33;;
78844;SDS011;68195;50.854;2.860;2023-07-28T08:19:36;3.20;;;1.60;;
78844;SDS011;68195;50.854;2.860;2023-07-28T08:22:02;1.80;;;1.17;;
78844;SDS011;68195;50.854;2.860;2023-07-28T08:24:29;2.50;;;1.25;;
78844;SDS011;68195;50.854;2.860;2023-07-28T08:26:56;2.97;;;1.40;;
78844;SDS011;68195;50.854;2.860;2023-07-28T08:29:21;3.10;;;1.23;;
78844;SDS011;68195;50.854;2.860;2023-07-28T08:31:46;2.88;;;1.02;;
78844;SDS011;68195;50.854;2.860;2023-07-28T08:34:12;1.98;;;1.30;;
78844;SDS011;68195;50.854;2.860;2023-07-28T08:36:38;3.75;;;1.20;;
78844;SDS011;68195;50.854;2.860;2023-07-28T08:39:03;1.13;;;0.80;;
78844;SDS011;68195;50.854;2.860;2023-07-28T08:41:34;1.83;;;1.13;;
78844;SDS011;68195;50.854;2.860;2023-07-28T08:44:02;1.88;;;1.00;;
78844;SDS011;68195;50.854;2.860;2023-07-28T08:46:28;1.48;;;0.90;;
78844;SDS011;68195;50.854;2.860;2023-07-28T08:48:53;1.42;;;0.90;;
78844;SDS011;68195;50.854;2.860;2023-07-28T08:51:22;0.90;;;0.80;;
78844;SDS011;68195;50.854;2.860;2023-07-28T08:53:48;2.58;;;1.05;;
78844;SDS011;68195;50.854;2.860;2023-07-28T08:56:14;2.08;;;1.17;;
78844;SDS011;68195;50.854;2.860;2023-07-28T08:58:41;1.70;;;0.90;;
78844;SDS011;68195;50.854;2.860;2023-07-28T09:01:07;1.40;;;1.17;;
78844;SDS011;68195;50.854;2.860;2023-07-28T09:03:32;2.00;;;1.00;;
78844;SDS011;68195;50.854;2.860;2023-07-28T09:06:06;3.40;;;1.20;;
78844;SDS011;68195;50.854;2.860;2023-07-28T09:08:33;1.52;;;1.08;;
78844;SDS011;68195;50.854;2.860;2023-07-28T09:11:03;1.98;;;1.20;;
78844;SDS011;68195;50.854;2.860;2023-07-28T09:13:38;1.45;;;1.00;;
78844;SDS011;68195;50.854;2.860;2023-07-28T09:16:15;2.10;;;1.20;;
78844;SDS011;68195;50.854;2.860;2023-07-28T09:18:45;1.80;;;1.00;;
78844;SDS011;68195;50.854;2.860;2023-07-28T09:21:20;3.53;;;1.35;;
78844;SDS011;68195;50.854;2.860;2023-07-28T09:23:47;1.48;;;1.05;;
78844;SDS011;68195;50.854;2.860;2023-07-28T09:26:13;2.38;;;1.30;;
78844;SDS011;68195;50.854;2.860;2023-07-28T09:28:42;1.33;;;1.00;;
78844;SDS011;68195;50.854;2.860;2023-07-28T09:31:10;1.08;;;0.93;;
78844;SDS011;68195;50.854;2.860;2023-07-28T09:33:39;2.30;;;1.17;;
78844;SDS011;68195;50.854;2.860;2023-07-28T09:36:12;1.80;;;1.42;;
78844;SDS011;68195;50.854;2.860;2023-07-28T09:38:43;1.77;;;1.40;;
78844;SDS011;68195;50.854;2.860;2023-07-28T09:41:11;3.35;;;1.60;;
78844;SDS011;68195;50.854;2.860;2023-07-28T09:43:39;2.08;;;1.50;;
78844;SDS011;68195;50.854;2.860;2023-07-28T09:46:06;6.47;;;1.67;;
78844;SDS011;68195;50.854;2.860;2023-07-28T09:48:33;1.90;;;1.10;;
78844;SDS011;68195;50.854;2.860;2023-07-28T09:51:27;2.65;;;1.15;;
78844;SDS011;68195;50.854;2.860;2023-07-28T09:54:04;1.90;;;1.17;;
78844;SDS011;68195;50.854;2.860;2023-07-28T09:56:31;1.55;;;1.10;;
78844;SDS011;68195;50.854;2.860;2023-07-28T09:58:57;1.73;;;1.20;;
78844;SDS011;68195;50.854;2.860;2023-07-28T10:01:23;2.10;;;1.30;;
78844;SDS011;68195;50.854;2.860;2023-07-28T10:03:52;2.35;;;1.17;;
78844;SDS011;68195;50.854;2.860;2023-07-28T10:06:19;2.78;;;1.27;;
78844;SDS011;68195;50.854;2.860;2023-07-28T10:08:48;5.45;;;1.42;;
78844;SDS011;68195;50.854;2.860;2023-07-28T10:11:17;1.55;;;1.38;;
78844;SDS011;68195;50.854;2.860;2023-07-28T10:13:44;1.77;;;1.27;;
78844;SDS011;68195;50.854;2.860;2023-07-28T10:16:12;2.33;;;1.40;;
78844;SDS011;68195;50.854;2.860;2023-07-28T10:18:41;2.85;;;1.55;;
78844;SDS011;68195;50.854;2.860;2023-07-28T10:21:08;1.80;;;1.40;;
78844;SDS011;68195;50.854;2.860;2023-07-28T10:23:40;2.08;;;1.42;;
78844;SDS011;68195;50.854;2.860;2023-07-28T10:26:06;1.67;;;1.20;;
78844;SDS011;68195;50.854;2.860;2023-07-28T10:28:35;2.97;;;2.08;;
78844;SDS011;68195;50.854;2.860;2023-07-28T10:31:08;2.88;;;1.30;;
78844;SDS011;68195;50.854;2.860;2023-07-28T10:36:18;3.55;;;1.35;;
78844;SDS011;68195;50.854;2.860;2023-07-28T10:39:22;1.70;;;1.23;;
78844;SDS011;68195;50.854;2.860;2023-07-28T10:42:07;1.63;;;1.05;;
78844;SDS011;68195;50.854;2.860;2023-07-28T10:44:34;2.47;;;0.90;;
78844;SDS011;68195;50.854;2.860;2023-07-28T10:47:00;1.55;;;0.90;;
78844;SDS011;68195;50.854;2.860;2023-07-28T10:49:25;1.85;;;1.15;;
78844;SDS011;68195;50.854;2.860;2023-07-28T10:51:53;1.25;;;0.93;;
78844;SDS011;68195;50.854;2.860;2023-07-28T10:54:19;2.25;;;0.98;;
78844;SDS011;68195;50.854;2.860;2023-07-28T10:56:47;1.40;;;0.68;;
78844;SDS011;68195;50.854;2.860;2023-07-28T10:59:15;1.42;;;1.00;;
78844;SDS011;68195;50.854;2.860;2023-07-28T11:01:43;2.20;;;1.30;;
78844;SDS011;68195;50.854;2.860;2023-07-28T11:06:39;0.73;;;0.68;;
78844;SDS011;68195;50.854;2.860;2023-07-28T11:09:14;1.23;;;0.88;;
78844;SDS011;68195;50.854;2.860;2023-07-28T11:11:41;2.80;;;1.05;;
78844;SDS011;68195;50.854;2.860;2023-07-28T11:14:08;1.70;;;1.13;;
78844;SDS011;68195;50.854;2.860;2023-07-28T11:16:37;2.33;;;1.27;;
78844;SDS011;68195;50.854;2.860;2023-07-28T11:19:13;1.60;;;1.20;;
78844;SDS011;68195;50.854;2.860;2023-07-28T11:21:42;2.50;;;1.00;;
78844;SDS011;68195;50.854;2.860;2023-07-28T11:24:17;3.60;;;1.20;;
78844;SDS011;68195;50.854;2.860;2023-07-28T11:26:46;2.58;;;1.10;;
78844;SDS011;68195;50.854;2.860;2023-07-28T11:29:12;1.90;;;1.13;;
78844;SDS011;68195;50.854;2.860;2023-07-28T11:31:37;2.58;;;1.30;;
78844;SDS011;68195;50.854;2.860;2023-07-28T11:34:06;1.65;;;1.13;;
78844;SDS011;68195;50.854;2.860;2023-07-28T11:36:38;1.02;;;0.90;;
78844;SDS011;68195;50.854;2.860;2023-07-28T11:39:03;1.58;;;1.17;;
78844;SDS011;68195;50.854;2.860;2023-07-28T11:41:33;1.65;;;1.02;;
78844;SDS011;68195;50.854;2.860;2023-07-28T11:43:59;2.05;;;0.95;;
78844;SDS011;68195;50.854;2.860;2023-07-28T11:46:36;1.52;;;1.00;;
78844;SDS011;68195;50.854;2.860;2023-07-28T11:49:08;2.28;;;1.20;;
78844;SDS011;68195;50.854;2.860;2023-07-28T11:51:38;4.43;;;1.75;;
78844;SDS011;68195;50.854;2.860;2023-07-28T11:54:11;1.27;;;1.08;;
78844;SDS011;68195;50.854;2.860;2023-07-28T11:56:39;1.63;;;1.23;;
78844;SDS011;68195;50.854;2.860;2023-07-28T11:59:11;2.58;;;0.90;;
78844;SDS011;68195;50.854;2.860;2023-07-28T12:04:23;2.03;;;1.13;;
78844;SDS011;68195;50.854;2.860;2023-07-28T12:07:06;1.42;;;1.10;;
78844;SDS011;68195;50.854;2.860;2023-07-28T12:09:32;4.25;;;1.50;;
78844;SDS011;68195;50.854;2.860;2023-07-28T12:12:23;2.50;;;1.13;;
78844;SDS011;68195;50.854;2.860;2023-07-28T12:14:51;3.25;;;1.25;;
78844;SDS011;68195;50.854;2.860;2023-07-28T12:17:21;1.50;;;1.25;;
78844;SDS011;68195;50.854;2.860;2023-07-28T12:20:07;1.45;;;0.95;;
78844;SDS011;68195;50.854;2.860;2023-07-28T12:22:43;4.53;;;1.38;;
78844;SDS011;68195;50.854;2.860;2023-07-28T12:25:10;2.80;;;1.23;;
78844;SDS011;68195;50.854;2.860;2023-07-28T12:27:39;1.88;;;1.13;;
78844;SDS011;68195;50.854;2.860;2023-07-28T12:30:07;2.08;;;1.10;;
78844;SDS011;68195;50.854;2.860;2023-07-28T12:32:34;2.90;;;1.30;;
78844;SDS011;68195;50.854;2.860;2023-07-28T12:34:59;1.95;;;1.20;;
78844;SDS011;68195;50.854;2.860;2023-07-28T12:37:25;2.35;;;1.50;;
78844;SDS011;68195;50.854;2.860;2023-07-28T12:39:52;2.42;;;1.00;;
78844;SDS011;68195;50.854;2.860;2023-07-28T12:42:20;3.42;;;1.38;;
78844;SDS011;68195;50.854;2.860;2023-07-28T12:44:46;1.88;;;1.00;;
78844;SDS011;68195;50.854;2.860;2023-07-28T12:47:11;1.73;;;1.10;;
78844;SDS011;68195;50.854;2.860;2023-07-28T12:49:36;2.85;;;1.30;;
78844;SDS011;68195;50.854;2.860;2023-07-28T12:52:07;1.90;;;1.10;;
78844;SDS011;68195;50.854;2.860;2023-07-28T12:54:35;1.98;;;1.33;;
78844;SDS011;68195;50.854;2.860;2023-07-28T12:57:04;1.67;;;1.20;;
78844;SDS011;68195;50.854;2.860;2023-07-28T12:59:34;2.17;;;1.10;;
78844;SDS011;68195;50.854;2.860;2023-07-28T13:02:00;2.80;;;1.40;;
78844;SDS011;68195;50.854;2.860;2023-07-28T13:04:27;2.80;;;1.27;;
78844;SDS011;68195;50.854;2.860;2023-07-28T13:06:57;2.85;;;1.15;;
78844;SDS011;68195;50.854;2.860;2023-07-28T13:09:25;3.20;;;1.30;;
78844;SDS011;68195;50.854;2.860;2023-07-28T13:11:53;2.90;;;1.13;;
78844;SDS011;68195;50.854;2.860;2023-07-28T13:14:18;1.40;;;1.05;;
78844;SDS011;68195;50.854;2.860;2023-07-28T13:16:44;1.50;;;1.33;;
78844;SDS011;68195;50.854;2.860;2023-07-28T13:19:09;1.52;;;1.30;;
78844;SDS011;68195;50.854;2.860;2023-07-28T13:21:37;1.83;;;1.20;;
78844;SDS011;68195;50.854;2.860;2023-07-28T13:24:05;1.90;;;1.20;;
78844;SDS011;68195;50.854;2.860;2023-07-28T13:26:33;1.85;;;0.95;;
78844;SDS011;68195;50.854;2.860;2023-07-28T13:28:58;1.38;;;0.95;;
78844;SDS011;68195;50.854;2.860;2023-07-28T13:31:26;2.05;;;1.20;;
78844;SDS011;68195;50.854;2.860;2023-07-28T13:33:52;1.60;;;1.23;;
78844;SDS011;68195;50.854;2.860;2023-07-28T13:36:20;3.40;;;1.10;;
78844;SDS011;68195;50.854;2.860;2023-07-28T13:38:50;1.33;;;1.15;;
78844;SDS011;68195;50.854;2.860;2023-07-28T13:41:16;1.23;;;1.05;;
78844;SDS011;68195;50.854;2.860;2023-07-28T13:43:44;1.10;;;1.00;;
78844;SDS011;68195;50.854;2.860;2023-07-28T13:46:11;1.52;;;0.98;;
78844;SDS011;68195;50.854;2.860;2023-07-28T13:48:37;3.63;;;0.98;;
78844;SDS011;68195;50.854;2.860;2023-07-28T13:51:04;1.38;;;1.10;;
78844;SDS011;68195;50.854;2.860;2023-07-28T13:53:30;1.48;;;0.93;;
78844;SDS011;68195;50.854;2.860;2023-07-28T13:55:55;1.10;;;0.90;;
78844;SDS011;68195;50.854;2.860;2023-07-28T13:58:23;2.30;;;1.00;;
78844;SDS011;68195;50.854;2.860;2023-07-28T14:00:49;2.20;;;1.30;;
78844;SDS011;68195;50.854;2.860;2023-07-28T14:03:14;0.80;;;0.80;;
78844;SDS011;68195;50.854;2.860;2023-07-28T14:05:41;1.70;;;0.90;;
78844;SDS011;68195;50.854;2.860;2023-07-28T14:08:06;1.13;;;0.80;;
78844;SDS011;68195;50.854;2.860;2023-07-28T14:10:32;1.35;;;0.90;;
78844;SDS011;68195;50.854;2.860;2023-07-28T14:12:58;1.52;;;1.10;;
78844;SDS011;68195;50.854;2.860;2023-07-28T14:15:23;1.13;;;1.00;;
78844;SDS011;68195;50.854;2.860;2023-07-28T14:17:49;2.03;;;0.90;;
78844;SDS011;68195;50.854;2.860;2023-07-28T14:20:14;1.00;;;0.90;;
78844;SDS011;68195;50.854;2.860;2023-07-28T14:22:40;1.58;;;1.08;;
78844;SDS011;68195;50.854;2.860;2023-07-28T14:25:08;1.17;;;1.05;;
78844;SDS011;68195;50.854;2.860;2023-07-28T14:27:39;2.47;;;0.90;;
78844;SDS011;68195;50.854;2.860;2023-07-28T14:30:06;2.40;;;1.10;;
78844;SDS011;68195;50.854;2.860;2023-07-28T14:32:32;1.17;;;0.90;;
78844;SDS011;68195;50.854;2.860;2023-07-28T14:34:58;1.45;;;0.95;;
78844;SDS011;68195;50.854;2.860;2023-07-28T14:37:26;1.70;;;1.00;;
78844;SDS011;68195;50.854;2.860;2023-07-28T14:39:51;1.75;;;1.00;;
78844;SDS011;68195;50.854;2.860;2023-07-28T14:42:18;2.40;;;1.20;;
78844;SDS011;68195;50.854;2.860;2023-07-28T14:44:43;2.92;;;1.20;;
78844;SDS011;68195;50.854;2.860;2023-07-28T14:47:09;1.35;;;1.00;;
78844;SDS011;68195;50.854;2.860;2023-07-28T14:49:34;1.73;;;1.02;;
78844;SDS011;68195;50.854;2.860;2023-07-28T14:52:00;1.75;;;1.25;;
78844;SDS011;68195;50.854;2.860;2023-07-28T14:54:27;1.45;;;1.02;;
78844;SDS011;68195;50.854;2.860;2023-07-28T14:56:53;1.42;;;1.08;;
78844;SDS011;68195;50.854;2.860;2023-07-28T14:59:20;1.67;;;1.10;;
78844;SDS011;68195;50.854;2.860;2023-07-28T15:01:46;1.67;;;1.20;;